Odincovo, Russia
Current Conditions -  °F | °C
As of 7:00 AM on Friday 28 Nov 2014 (Local Time) from UUWW Reporting Station
Haze Haze  
Wind Chill: 12°   Ceiling: 10000
Heat Index: 12°   Visibility: 1.5mi
Dew Point: 10°   Wind: 2mph
Humidity: 92%   Direction: NA
Pressure: 30.5"   Gusts: NA
Location:  55.67°N, 37.29°E
Report Text: UUWW 280400Z VRB01MPS 2400 BR BKN100 M11/M12 Q1033 24290050NOSIG
Loading
Personal Weather Stations






























Interactive Weather Map New forecast layout! Learn more

10-Day Weather Forecast

Advertisements
Track Severe Weather on mobile